sensor_id;sensor_type;location;lat;lon;timestamp;temperature;humidity
1413;DHT22;701;52.526;13.408;2023-04-01T00:00:52;11.50;41.30
1413;DHT22;701;52.526;13.408;2023-04-01T00:03:19;11.50;41.30
1413;DHT22;701;52.526;13.408;2023-04-01T00:05:46;11.50;41.30
1413;DHT22;701;52.526;13.408;2023-04-01T00:08:13;11.50;41.30
1413;DHT22;701;52.526;13.408;2023-04-01T00:10:39;11.50;41.30
1413;DHT22;701;52.526;13.408;2023-04-01T00:13:05;11.50;41.30
1413;DHT22;701;52.526;13.408;2023-04-01T00:15:31;11.50;41.30
1413;DHT22;701;52.526;13.408;2023-04-01T00:17:57;11.50;41.30
1413;DHT22;701;52.526;13.408;2023-04-01T00:20:24;11.50;42.00
1413;DHT22;701;52.526;13.408;2023-04-01T00:22:50;11.50;41.40
1413;DHT22;701;52.526;13.408;2023-04-01T00:25:16;11.50;41.30
1413;DHT22;701;52.526;13.408;2023-04-01T00:27:42;11.50;41.30
1413;DHT22;701;52.526;13.408;2023-04-01T00:30:09;11.50;41.30
1413;DHT22;701;52.526;13.408;2023-04-01T00:32:34;11.50;41.30
1413;DHT22;701;52.526;13.408;2023-04-01T00:35:01;11.50;41.30
1413;DHT22;701;52.526;13.408;2023-04-01T00:37:27;11.60;41.40
1413;DHT22;701;52.526;13.408;2023-04-01T00:39:53;11.50;41.30
1413;DHT22;701;52.526;13.408;2023-04-01T00:42:20;11.60;41.40
1413;DHT22;701;52.526;13.408;2023-04-01T00:44:50;11.60;41.40
1413;DHT22;701;52.526;13.408;2023-04-01T00:47:17;11.60;41.40
1413;DHT22;701;52.526;13.408;2023-04-01T00:49:46;11.60;41.10
1413;DHT22;701;52.526;13.408;2023-04-01T00:52:17;11.60;41.10
1413;DHT22;701;52.526;13.408;2023-04-01T00:54:46;11.60;40.90
1413;DHT22;701;52.526;13.408;2023-04-01T00:57:31;11.60;41.40
1413;DHT22;701;52.526;13.408;2023-04-01T01:00:00;11.60;41.00
1413;DHT22;701;52.526;13.408;2023-04-01T01:02:26;11.60;40.80
1413;DHT22;701;52.526;13.408;2023-04-01T01:04:52;11.60;40.90
1413;DHT22;701;52.526;13.408;2023-04-01T01:07:36;11.60;40.90
1413;DHT22;701;52.526;13.408;2023-04-01T01:15:32;11.60;41.20
1413;DHT22;701;52.526;13.408;2023-04-01T01:27:02;11.60;41.40
1413;DHT22;701;52.526;13.408;2023-04-01T01:29:34;11.60;41.40
1413;DHT22;701;52.526;13.408;2023-04-01T01:34:53;11.60;41.40
1413;DHT22;701;52.526;13.408;2023-04-01T01:37:23;11.60;41.40
1413;DHT22;701;52.526;13.408;2023-04-01T01:39:55;11.60;41.40
1413;DHT22;701;52.526;13.408;2023-04-01T01:42:24;11.60;41.40
1413;DHT22;701;52.526;13.408;2023-04-01T01:44:52;11.60;41.50
1413;DHT22;701;52.526;13.408;2023-04-01T01:47:19;11.60;41.40
1413;DHT22;701;52.526;13.408;2023-04-01T01:49:46;11.60;41.40
1413;DHT22;701;52.526;13.408;2023-04-01T01:52:12;11.60;41.50
1413;DHT22;701;52.526;13.408;2023-04-01T01:54:53;11.60;41.80
1413;DHT22;701;52.526;13.408;2023-04-01T01:57:24;11.60;41.90
1413;DHT22;701;52.526;13.408;2023-04-01T01:59:56;11.60;42.00
1413;DHT22;701;52.526;13.408;2023-04-01T02:02:26;11.60;42.20
1413;DHT22;701;52.526;13.408;2023-04-01T02:04:57;11.60;42.40
1413;DHT22;701;52.526;13.408;2023-04-01T02:07:26;11.50;42.70
1413;DHT22;701;52.526;13.408;2023-04-01T02:09:53;11.60;42.70
1413;DHT22;701;52.526;13.408;2023-04-01T02:12:21;11.60;42.80
1413;DHT22;701;52.526;13.408;2023-04-01T02:14:53;11.60;42.80
1413;DHT22;701;52.526;13.408;2023-04-01T02:17:22;11.60;42.80
1413;DHT22;701;52.526;13.408;2023-04-01T02:20:01;11.60;42.70
1413;DHT22;701;52.526;13.408;2023-04-01T02:22:34;11.60;42.90
1413;DHT22;701;52.526;13.408;2023-04-01T02:25:10;11.60;42.80
1413;DHT22;701;52.526;13.408;2023-04-01T02:27:37;11.60;43.00
1413;DHT22;701;52.526;13.408;2023-04-01T02:30:04;11.60;43.70
1413;DHT22;701;52.526;13.408;2023-04-01T02:32:31;11.60;43.10
1413;DHT22;701;52.526;13.408;2023-04-01T02:34:58;11.60;43.30
1413;DHT22;701;52.526;13.408;2023-04-01T02:37:25;11.60;43.40
1413;DHT22;701;52.526;13.408;2023-04-01T02:39:52;11.60;43.40
1413;DHT22;701;52.526;13.408;2023-04-01T02:42:17;11.60;43.70
1413;DHT22;701;52.526;13.408;2023-04-01T02:44:43;11.60;43.90
1413;DHT22;701;52.526;13.408;2023-04-01T02:47:09;11.60;44.40
1413;DHT22;701;52.526;13.408;2023-04-01T02:49:35;11.60;43.80
1413;DHT22;701;52.526;13.408;2023-04-01T02:52:01;11.60;43.50
1413;DHT22;701;52.526;13.408;2023-04-01T02:54:27;11.60;43.50
1413;DHT22;701;52.526;13.408;2023-04-01T02:56:52;11.60;43.30
1413;DHT22;701;52.526;13.408;2023-04-01T02:59:18;11.60;43.30
1413;DHT22;701;52.526;13.408;2023-04-01T03:01:44;11.60;43.10
1413;DHT22;701;52.526;13.408;2023-04-01T03:04:10;11.60;43.10
1413;DHT22;701;52.526;13.408;2023-04-01T03:06:36;11.60;42.90
1413;DHT22;701;52.526;13.408;2023-04-01T03:09:02;11.60;42.70
1413;DHT22;701;52.526;13.408;2023-04-01T03:11:28;11.60;42.40
1413;DHT22;701;52.526;13.408;2023-04-01T03:13:54;11.60;42.20
1413;DHT22;701;52.526;13.408;2023-04-01T03:16:20;11.60;42.20
1413;DHT22;701;52.526;13.408;2023-04-01T03:18:46;11.60;42.10
1413;DHT22;701;52.526;13.408;2023-04-01T03:21:17;11.60;42.00
1413;DHT22;701;52.526;13.408;2023-04-01T03:23:43;11.60;42.00
1413;DHT22;701;52.526;13.408;2023-04-01T03:26:09;11.60;42.00
1413;DHT22;701;52.526;13.408;2023-04-01T03:28:35;11.60;41.90
1413;DHT22;701;52.526;13.408;2023-04-01T03:31:01;11.60;41.90
1413;DHT22;701;52.526;13.408;2023-04-01T03:33:29;11.60;41.90
1413;DHT22;701;52.526;13.408;2023-04-01T03:35:55;11.60;41.40
1413;DHT22;701;52.526;13.408;2023-04-01T03:38:20;11.60;41.40
1413;DHT22;701;52.526;13.408;2023-04-01T03:40:46;11.60;41.40
1413;DHT22;701;52.526;13.408;2023-04-01T03:43:15;11.60;41.50
1413;DHT22;701;52.526;13.408;2023-04-01T03:45:50;11.60;41.40
1413;DHT22;701;52.526;13.408;2023-04-01T03:48:17;11.60;41.40
1413;DHT22;701;52.526;13.408;2023-04-01T03:50:43;11.60;41.50
1413;DHT22;701;52.526;13.408;2023-04-01T03:53:10;11.60;41.40
1413;DHT22;701;52.526;13.408;2023-04-01T03:55:39;11.60;41.50
1413;DHT22;701;52.526;13.408;2023-04-01T03:58:06;11.60;41.40
1413;DHT22;701;52.526;13.408;2023-04-01T04:00:33;11.70;41.50
1413;DHT22;701;52.526;13.408;2023-04-01T04:02:59;11.70;41.50
1413;DHT22;701;52.526;13.408;2023-04-01T04:05:30;11.70;41.50
1413;DHT22;701;52.526;13.408;2023-04-01T04:07:57;11.70;41.50
1413;DHT22;701;52.526;13.408;2023-04-01T04:10:23;11.70;41.50
1413;DHT22;701;52.526;13.408;2023-04-01T04:12:51;11.70;41.50
1413;DHT22;701;52.526;13.408;2023-04-01T04:15:18;11.70;41.50
1413;DHT22;701;52.526;13.408;2023-04-01T04:17:45;11.70;41.50
1413;DHT22;701;52.526;13.408;2023-04-01T04:20:11;11.80;41.60
1413;DHT22;701;52.526;13.408;2023-04-01T04:22:37;11.80;41.50
1413;DHT22;701;52.526;13.408;2023-04-01T04:25:06;11.80;41.40
1413;DHT22;701;52.526;13.408;2023-04-01T04:27:33;11.80;41.70
1413;DHT22;701;52.526;13.408;2023-04-01T04:30:07;11.80;41.10
1413;DHT22;701;52.526;13.408;2023-04-01T04:32:33;11.80;41.00
1413;DHT22;701;52.526;13.408;2023-04-01T04:34:59;11.80;40.90
1413;DHT22;701;52.526;13.408;2023-04-01T04:37:25;11.90;41.10
1413;DHT22;701;52.526;13.408;2023-04-01T04:39:52;11.80;40.90
1413;DHT22;701;52.526;13.408;2023-04-01T04:42:18;11.90;41.00
1413;DHT22;701;52.526;13.408;2023-04-01T04:44:44;11.90;41.00
1413;DHT22;701;52.526;13.408;2023-04-01T04:47:10;11.90;41.00
1413;DHT22;701;52.526;13.408;2023-04-01T04:49:36;12.00;41.10
1413;DHT22;701;52.526;13.408;2023-04-01T04:52:06;11.90;41.10
1413;DHT22;701;52.526;13.408;2023-04-01T04:54:32;12.00;41.00
1413;DHT22;701;52.526;13.408;2023-04-01T04:57:00;12.00;41.00
1413;DHT22;701;52.526;13.408;2023-04-01T04:59:30;12.00;40.80
1413;DHT22;701;52.526;13.408;2023-04-01T05:02:10;12.00;40.80
1413;DHT22;701;52.526;13.408;2023-04-01T05:04:36;12.00;40.90
1413;DHT22;701;52.526;13.408;2023-04-01T05:07:04;12.00;40.80
1413;DHT22;701;52.526;13.408;2023-04-01T05:09:31;12.00;40.90
1413;DHT22;701;52.526;13.408;2023-04-01T05:11:58;12.10;40.90
1413;DHT22;701;52.526;13.408;2023-04-01T05:14:25;12.10;40.70
1413;DHT22;701;52.526;13.408;2023-04-01T05:16:58;12.10;40.80
1413;DHT22;701;52.526;13.408;2023-04-01T05:19:24;12.10;40.70
1413;DHT22;701;52.526;13.408;2023-04-01T05:21:50;12.10;40.60
1413;DHT22;701;52.526;13.408;2023-04-01T05:24:15;12.10;40.60
1413;DHT22;701;52.526;13.408;2023-04-01T05:26:41;12.10;40.60
1413;DHT22;701;52.526;13.408;2023-04-01T05:29:07;12.10;40.60
1413;DHT22;701;52.526;13.408;2023-04-01T05:31:33;12.10;40.50
1413;DHT22;701;52.526;13.408;2023-04-01T05:34:00;12.10;40.40
1413;DHT22;701;52.526;13.408;2023-04-01T05:36:26;12.20;40.50
1413;DHT22;701;52.526;13.408;2023-04-01T05:38:57;12.20;40.40
1413;DHT22;701;52.526;13.408;2023-04-01T05:41:24;12.10;40.50
1413;DHT22;701;52.526;13.408;2023-04-01T05:43:50;12.10;40.60
1413;DHT22;701;52.526;13.408;2023-04-01T05:46:34;12.10;40.60
1413;DHT22;701;52.526;13.408;2023-04-01T05:49:10;12.20;41.00
1413;DHT22;701;52.526;13.408;2023-04-01T05:51:37;12.20;41.00
1413;DHT22;701;52.526;13.408;2023-04-01T05:54:05;12.20;41.00
1413;DHT22;701;52.526;13.408;2023-04-01T05:56:31;12.20;41.10
1413;DHT22;701;52.526;13.408;2023-04-01T05:58:57;12.20;40.90
1413;DHT22;701;52.526;13.408;2023-04-01T06:01:24;12.20;41.00
1413;DHT22;701;52.526;13.408;2023-04-01T06:03:49;12.20;40.80
1413;DHT22;701;52.526;13.408;2023-04-01T06:06:23;12.30;40.90
1413;DHT22;701;52.526;13.408;2023-04-01T06:08:50;12.30;40.70
1413;DHT22;701;52.526;13.408;2023-04-01T06:11:41;12.30;40.70
1413;DHT22;701;52.526;13.408;2023-04-01T06:34:20;12.30;41.30
1413;DHT22;701;52.526;13.408;2023-04-01T06:55:44;12.20;41.90
1413;DHT22;701;52.526;13.408;2023-04-01T06:58:27;12.20;42.20
1413;DHT22;701;52.526;13.408;2023-04-01T07:00:58;12.20;42.60
1413;DHT22;701;52.526;13.408;2023-04-01T07:03:49;12.20;42.80
1413;DHT22;701;52.526;13.408;2023-04-01T07:06:36;12.30;43.30
1413;DHT22;701;52.526;13.408;2023-04-01T07:09:12;12.40;43.20
1413;DHT22;701;52.526;13.408;2023-04-01T07:12:28;12.50;42.90
1413;DHT22;701;52.526;13.408;2023-04-01T07:15:40;12.60;42.30
1413;DHT22;701;52.526;13.408;2023-04-01T07:18:20;12.70;42.40
1413;DHT22;701;52.526;13.408;2023-04-01T07:20:47;12.70;41.80
1413;DHT22;701;52.526;13.408;2023-04-01T07:23:54;12.80;41.20
1413;DHT22;701;52.526;13.408;2023-04-01T07:26:30;12.80;41.10
1413;DHT22;701;52.526;13.408;2023-04-01T07:29:14;12.80;41.00
1413;DHT22;701;52.526;13.408;2023-04-01T07:37:39;12.90;39.80
1413;DHT22;701;52.526;13.408;2023-04-01T07:40:33;12.90;39.50
1413;DHT22;701;52.526;13.408;2023-04-01T07:43:22;12.90;39.10
1413;DHT22;701;52.526;13.408;2023-04-01T07:46:11;13.00;39.20
1413;DHT22;701;52.526;13.408;2023-04-01T07:49:04;13.00;38.80
1413;DHT22;701;52.526;13.408;2023-04-01T07:54:21;13.00;39.20
1413;DHT22;701;52.526;13.408;2023-04-01T07:56:56;13.00;39.40
1413;DHT22;701;52.526;13.408;2023-04-01T08:00:18;13.00;39.60
1413;DHT22;701;52.526;13.408;2023-04-01T08:06:02;13.00;39.70
1413;DHT22;701;52.526;13.408;2023-04-01T08:09:02;13.00;39.60
1413;DHT22;701;52.526;13.408;2023-04-01T08:15:00;13.00;40.00
1413;DHT22;701;52.526;13.408;2023-04-01T08:23:06;12.80;39.50
1413;DHT22;701;52.526;13.408;2023-04-01T08:28:44;12.80;39.50
1413;DHT22;701;52.526;13.408;2023-04-01T08:31:16;12.80;39.30
1413;DHT22;701;52.526;13.408;2023-04-01T08:33:47;12.80;38.90
1413;DHT22;701;52.526;13.408;2023-04-01T08:36:33;12.60;37.70
1413;DHT22;701;52.526;13.408;2023-04-01T08:39:13;12.60;37.90
1413;DHT22;701;52.526;13.408;2023-04-01T08:56:17;12.30;39.10
1413;DHT22;701;52.526;13.408;2023-04-01T09:10:29;13.30;34.10
1413;DHT22;701;52.526;13.408;2023-04-01T09:13:34;13.50;33.20
1413;DHT22;701;52.526;13.408;2023-04-01T09:16:22;13.60;31.80
1413;DHT22;701;52.526;13.408;2023-04-01T09:19:24;13.70;31.30
1413;DHT22;701;52.526;13.408;2023-04-01T09:22:24;13.70;30.80
1413;DHT22;701;52.526;13.408;2023-04-01T09:27:48;13.60;30.40
1413;DHT22;701;52.526;13.408;2023-04-01T09:39:36;13.20;30.70
1413;DHT22;701;52.526;13.408;2023-04-01T09:44:48;13.00;30.20
1413;DHT22;701;52.526;13.408;2023-04-01T09:47:23;12.80;30.70
1413;DHT22;701;52.526;13.408;2023-04-01T09:55:50;12.40;31.10
1413;DHT22;701;52.526;13.408;2023-04-01T10:01:33;12.20;33.10
1413;DHT22;701;52.526;13.408;2023-04-01T10:18:45;11.80;33.40
1413;DHT22;701;52.526;13.408;2023-04-01T10:24:41;11.70;34.20
1413;DHT22;701;52.526;13.408;2023-04-01T10:36:43;11.50;37.00
1413;DHT22;701;52.526;13.408;2023-04-01T10:39:46;11.40;36.90
1413;DHT22;701;52.526;13.408;2023-04-01T10:46:26;11.30;37.50
1413;DHT22;701;52.526;13.408;2023-04-01T11:25:22;11.10;39.30
1413;DHT22;701;52.526;13.408;2023-04-01T11:41:00;11.30;37.30
1413;DHT22;701;52.526;13.408;2023-04-01T11:47:19;11.30;36.30
1413;DHT22;701;52.526;13.408;2023-04-01T12:04:19;11.10;36.60
1413;DHT22;701;52.526;13.408;2023-04-01T12:12:38;10.80;38.40
1413;DHT22;701;52.526;13.408;2023-04-01T12:18:21;10.70;37.70
1413;DHT22;701;52.526;13.408;2023-04-01T12:27:05;10.50;37.40
1413;DHT22;701;52.526;13.408;2023-04-01T12:29:59;10.50;37.90
1413;DHT22;701;52.526;13.408;2023-04-01T12:35:21;10.40;38.20
1413;DHT22;701;52.526;13.408;2023-04-01T12:40:45;10.50;38.40
1413;DHT22;701;52.526;13.408;2023-04-01T12:49:50;10.60;38.60
1413;DHT22;701;52.526;13.408;2023-04-01T12:55:44;10.60;38.50
1413;DHT22;701;52.526;13.408;2023-04-01T12:58:56;10.60;38.40
1413;DHT22;701;52.526;13.408;2023-04-01T13:16:03;10.40;38.50
1413;DHT22;701;52.526;13.408;2023-04-01T13:19:13;10.30;38.70
1413;DHT22;701;52.526;13.408;2023-04-01T13:24:49;10.30;37.90
1413;DHT22;701;52.526;13.408;2023-04-01T13:27:26;10.30;38.00
1413;DHT22;701;52.526;13.408;2023-04-01T13:32:59;10.20;36.90
1413;DHT22;701;52.526;13.408;2023-04-01T13:35:52;10.10;37.70
1413;DHT22;701;52.526;13.408;2023-04-01T13:50:06;9.90;38.80
1413;DHT22;701;52.526;13.408;2023-04-01T13:55:30;9.90;38.50
1413;DHT22;701;52.526;13.408;2023-04-01T13:58:15;9.90;37.90
1413;DHT22;701;52.526;13.408;2023-04-01T14:01:15;10.10;36.60
1413;DHT22;701;52.526;13.408;2023-04-01T14:04:00;10.10;36.30
1413;DHT22;701;52.526;13.408;2023-04-01T14:20:45;10.30;33.80
1413;DHT22;701;52.526;13.408;2023-04-01T14:23:37;10.30;32.60
1413;DHT22;701;52.526;13.408;2023-04-01T14:26:30;10.30;32.30
1413;DHT22;701;52.526;13.408;2023-04-01T14:29:36;10.20;32.80
1413;DHT22;701;52.526;13.408;2023-04-01T14:34:55;10.20;32.90
1413;DHT22;701;52.526;13.408;2023-04-01T14:40:27;10.10;32.80
1413;DHT22;701;52.526;13.408;2023-04-01T14:49:01;9.90;33.60
1413;DHT22;701;52.526;13.408;2023-04-01T14:51:29;9.80;34.00
1413;DHT22;701;52.526;13.408;2023-04-01T14:54:12;9.70;34.10
1413;DHT22;701;52.526;13.408;2023-04-01T14:57:03;9.60;34.10
1413;DHT22;701;52.526;13.408;2023-04-01T14:59:29;9.60;34.70
1413;DHT22;701;52.526;13.408;2023-04-01T15:35:18;8.90;37.30
1413;DHT22;701;52.526;13.408;2023-04-01T15:43:24;8.90;38.70
1413;DHT22;701;52.526;13.408;2023-04-01T15:46:21;8.90;38.80
1413;DHT22;701;52.526;13.408;2023-04-01T16:09:37;8.60;39.90
1413;DHT22;701;52.526;13.408;2023-04-01T16:20:45;8.40;38.50
1413;DHT22;701;52.526;13.408;2023-04-01T16:38:18;8.10;37.60
1413;DHT22;701;52.526;13.408;2023-04-01T16:41:00;8.10;37.80
1413;DHT22;701;52.526;13.408;2023-04-01T16:46:34;8.00;38.70
1413;DHT22;701;52.526;13.408;2023-04-01T16:54:36;8.00;39.40
1413;DHT22;701;52.526;13.408;2023-04-01T17:02:35;7.90;39.20
1413;DHT22;701;52.526;13.408;2023-04-01T17:05:10;7.90;39.30
1413;DHT22;701;52.526;13.408;2023-04-01T17:08:14;7.90;39.10
1413;DHT22;701;52.526;13.408;2023-04-01T17:16:40;7.70;39.10
1413;DHT22;701;52.526;13.408;2023-04-01T17:22:22;7.60;39.50
1413;DHT22;701;52.526;13.408;2023-04-01T17:30:19;7.50;39.00
1413;DHT22;701;52.526;13.408;2023-04-01T17:33:04;7.40;38.90
1413;DHT22;701;52.526;13.408;2023-04-01T17:35:52;7.30;39.30
1413;DHT22;701;52.526;13.408;2023-04-01T17:49:33;7.00;38.60
1413;DHT22;701;52.526;13.408;2023-04-01T18:10:43;6.60;40.50
1413;DHT22;701;52.526;13.408;2023-04-01T18:16:11;6.60;40.90
1413;DHT22;701;52.526;13.408;2023-04-01T18:18:58;6.50;40.80
1413;DHT22;701;52.526;13.408;2023-04-01T18:21:38;6.50;40.90
1413;DHT22;701;52.526;13.408;2023-04-01T18:26:43;6.50;41.30
1413;DHT22;701;52.526;13.408;2023-04-01T18:29:26;6.40;41.10
1413;DHT22;701;52.526;13.408;2023-04-01T18:45:58;6.40;41.10
1413;DHT22;701;52.526;13.408;2023-04-01T18:56:34;6.40;40.60
1413;DHT22;701;52.526;13.408;2023-04-01T19:02:00;6.30;41.00
1413;DHT22;701;52.526;13.408;2023-04-01T19:04:55;6.30;41.70
1413;DHT22;701;52.526;13.408;2023-04-01T19:07:42;6.30;41.80
1413;DHT22;701;52.526;13.408;2023-04-01T19:13:38;6.30;42.00
1413;DHT22;701;52.526;13.408;2023-04-01T19:18:48;6.30;41.50
1413;DHT22;701;52.526;13.408;2023-04-01T19:21:42;6.30;41.60
1413;DHT22;701;52.526;13.408;2023-04-01T19:27:31;6.20;42.30
1413;DHT22;701;52.526;13.408;2023-04-01T19:37:39;6.10;42.20
1413;DHT22;701;52.526;13.408;2023-04-01T19:46:10;6.00;42.00
1413;DHT22;701;52.526;13.408;2023-04-01T19:48:55;6.00;42.20
1413;DHT22;701;52.526;13.408;2023-04-01T20:00:09;5.90;42.30
1413;DHT22;701;52.526;13.408;2023-04-01T20:03:11;5.80;42.40
1413;DHT22;701;52.526;13.408;2023-04-01T20:16:04;5.70;43.20
1413;DHT22;701;52.526;13.408;2023-04-01T20:26:41;5.60;44.30
1413;DHT22;701;52.526;13.408;2023-04-01T20:45:31;5.50;44.60
1413;DHT22;701;52.526;13.408;2023-04-01T20:53:34;5.40;43.10
1413;DHT22;701;52.526;13.408;2023-04-01T20:56:31;5.30;42.60
1413;DHT22;701;52.526;13.408;2023-04-01T20:59:09;5.30;42.20
1413;DHT22;701;52.526;13.408;2023-04-01T21:10:03;5.20;42.00
1413;DHT22;701;52.526;13.408;2023-04-01T21:13:01;5.20;42.40
1413;DHT22;701;52.526;13.408;2023-04-01T21:16:00;5.20;43.40
1413;DHT22;701;52.526;13.408;2023-04-01T21:18:47;5.30;42.40
1413;DHT22;701;52.526;13.408;2023-04-01T21:24:46;5.20;41.50
1413;DHT22;701;52.526;13.408;2023-04-01T21:27:31;5.30;41.60
1413;DHT22;701;52.526;13.408;2023-04-01T21:41:16;5.30;41.80
1413;DHT22;701;52.526;13.408;2023-04-01T21:44:17;5.30;42.10
1413;DHT22;701;52.526;13.408;2023-04-01T21:58:49;5.40;41.50
1413;DHT22;701;52.526;13.408;2023-04-01T22:02:11;5.40;41.00
1413;DHT22;701;52.526;13.408;2023-04-01T22:18:32;5.20;37.10
1413;DHT22;701;52.526;13.408;2023-04-01T22:21:15;5.20;37.10
1413;DHT22;701;52.526;13.408;2023-04-01T22:24:20;5.20;37.00
1413;DHT22;701;52.526;13.408;2023-04-01T22:30:13;5.10;35.50
1413;DHT22;701;52.526;13.408;2023-04-01T22:32:46;5.10;36.20
1413;DHT22;701;52.526;13.408;2023-04-01T22:38:17;5.10;36.10
1413;DHT22;701;52.526;13.408;2023-04-01T22:43:28;5.10;35.80
1413;DHT22;701;52.526;13.408;2023-04-01T22:49:03;5.10;34.40
1413;DHT22;701;52.526;13.408;2023-04-01T22:54:37;5.00;33.20
1413;DHT22;701;52.526;13.408;2023-04-01T22:57:08;5.00;33.60
1413;DHT22;701;52.526;13.408;2023-04-01T23:02:31;5.00;33.90
1413;DHT22;701;52.526;13.408;2023-04-01T23:05:01;5.00;34.30
1413;DHT22;701;52.526;13.408;2023-04-01T23:10:26;5.10;33.60
1413;DHT22;701;52.526;13.408;2023-04-01T23:12:56;5.10;33.70
1413;DHT22;701;52.526;13.408;2023-04-01T23:15:23;5.10;33.40
1413;DHT22;701;52.526;13.408;2023-04-01T23:23:26;5.10;32.70
1413;DHT22;701;52.526;13.408;2023-04-01T23:26:10;5.10;32.70
1413;DHT22;701;52.526;13.408;2023-04-01T23:28:40;5.10;31.90
1413;DHT22;701;52.526;13.408;2023-04-01T23:31:26;5.10;31.50
1413;DHT22;701;52.526;13.408;2023-04-01T23:33:55;5.00;31.60
1413;DHT22;701;52.526;13.408;2023-04-01T23:36:21;5.00;31.50
1413;DHT22;701;52.526;13.408;2023-04-01T23:38:48;5.00;31.10
1413;DHT22;701;52.526;13.408;2023-04-01T23:41:29;5.00;31.20
1413;DHT22;701;52.526;13.408;2023-04-01T23:44:09;5.00;30.80
1413;DHT22;701;52.526;13.408;2023-04-01T23:46:37;4.90;30.70
1413;DHT22;701;52.526;13.408;2023-04-01T23:49:09;4.90;31.10
1413;DHT22;701;52.526;13.408;2023-04-01T23:51:39;4.90;31.80
1413;DHT22;701;52.526;13.408;2023-04-01T23:54:24;4.90;31.30
1413;DHT22;701;52.526;13.408;2023-04-01T23:56:55;4.90;31.80
1413;DHT22;701;52.526;13.408;2023-04-01T23:59:32;4.90;32.00
